Time;durP1;ratioP1;P1;durP2;ratioP2;P2;SDS_P1;SDS_P2;PMS_P1;PMS_P2;Temp;Humidity;BMP_temperature;BMP_pressure;BME280_temperature;BME280_humidity;BME280_pressure;Samples;Min_cycle;Max_cycle;Signal;HPM_P1;HPM_P2
2022/09/05 00:02:43;;;;;;;6.53;4.40;;;20.30;99.90;;;;;;5026104;28;20036;-70
2022/09/05 00:05:33;;;;;;;4.80;4.15;;;20.30;99.90;;;;;;5031189;28;20061;-70
2022/09/05 00:08:17;;;;;;;9.75;3.72;;;20.20;99.90;;;;;;5029274;28;20537;-71
2022/09/05 00:11:11;;;;;;;5.25;3.72;;;20.20;99.90;;;;;;5026631;28;20575;-70
2022/09/05 00:14:08;;;;;;;7.00;3.90;;;20.20;99.90;;;;;;5028189;28;20055;-70
2022/09/05 00:17:03;;;;;;;5.47;3.88;;;20.10;99.90;;;;;;5028462;28;20529;-70
2022/09/05 00:19:48;;;;;;;8.15;3.60;;;20.00;99.90;;;;;;5027480;28;20496;-70
2022/09/05 00:22:16;;;;;;;7.75;3.67;;;20.00;99.90;;;;;;5028982;28;20147;-70
2022/09/05 00:25:19;;;;;;;6.57;3.70;;;19.90;99.90;;;;;;5031095;28;20087;-70
2022/09/05 00:28:15;;;;;;;7.90;3.28;;;19.80;99.90;;;;;;5025301;28;20165;-70
2022/09/05 00:31:05;;;;;;;5.22;4.25;;;19.80;99.90;;;;;;5027242;28;20018;-70
2022/09/05 00:33:54;;;;;;;7.25;4.03;;;19.80;99.90;;;;;;5028493;28;20061;-70
2022/09/05 00:36:23;;;;;;;5.28;3.97;;;19.80;99.90;;;;;;5024139;28;20164;-71
2022/09/05 00:38:59;;;;;;;9.50;4.05;;;19.80;99.90;;;;;;5026425;28;20076;-70
2022/09/05 00:41:27;;;;;;;6.05;4.25;;;19.80;99.90;;;;;;5021312;28;20021;-70
2022/09/05 00:43:55;;;;;;;7.18;4.45;;;19.70;99.90;;;;;;5027174;28;20117;-70
2022/09/05 00:46:25;;;;;;;8.63;4.60;;;19.80;99.90;;;;;;5031128;28;20021;-70
2022/09/05 00:49:09;;;;;;;7.70;3.95;;;19.70;99.90;;;;;;5025790;28;20117;-70
2022/09/05 00:52:03;;;;;;;7.65;3.80;;;19.70;99.90;;;;;;5030753;28;20092;-70
2022/09/05 00:54:47;;;;;;;5.18;3.97;;;19.60;99.90;;;;;;5022553;28;20053;-70
2022/09/05 00:57:51;;;;;;;4.88;3.95;;;19.70;99.90;;;;;;5028033;28;20516;-70
2022/09/05 01:00:32;;;;;;;6.53;4.45;;;19.50;99.90;;;;;;5019998;28;20495;-70
2022/09/05 01:03:11;;;;;;;4.95;4.13;;;19.50;99.90;;;;;;5025730;28;20095;-70
2022/09/05 01:06:14;;;;;;;5.47;4.38;;;19.40;99.90;;;;;;5022720;28;20029;-70
2022/09/05 01:09:24;;;;;;;5.10;4.60;;;19.40;99.90;;;;;;5022940;28;20060;-70
2022/09/05 01:11:55;;;;;;;5.53;4.20;;;19.40;99.90;;;;;;5026285;28;20033;-70
2022/09/05 01:14:26;;;;;;;6.88;4.22;;;19.40;99.90;;;;;;5024691;28;20042;-70
2022/09/05 01:17:10;;;;;;;4.85;4.15;;;19.40;99.90;;;;;;5023884;28;20021;-70
2022/09/05 01:20:13;;;;;;;4.85;4.32;;;19.40;99.90;;;;;;5025116;28;20061;-70
2022/09/05 01:22:41;;;;;;;;;;;19.30;99.90;;;;;;5025263;28;20096;-70
2022/09/05 01:25:48;;;;;;;4.45;3.95;;;19.30;99.90;;;;;;5029450;28;19951;-70
2022/09/05 01:28:26;;;;;;;4.28;3.63;;;19.30;99.90;;;;;;5028490;28;20021;-70
2022/09/05 01:31:29;;;;;;;6.03;4.35;;;19.30;99.90;;;;;;5024672;28;20053;-70
2022/09/05 01:33:55;;;;;;;5.82;4.45;;;19.20;99.90;;;;;;5024894;28;20038;-70
2022/09/05 01:36:25;;;;;;;4.20;3.80;;;19.20;99.90;;;;;;5026604;28;20034;-70
2022/09/05 01:38:57;;;;;;;4.50;3.88;;;19.20;99.90;;;;;;5030265;28;20029;-70
2022/09/05 01:41:39;;;;;;;7.55;4.22;;;19.10;99.90;;;;;;5032965;28;20017;-70
2022/09/05 01:44:31;;;;;;;5.88;4.38;;;19.10;99.90;;;;;;5030504;28;20036;-70
2022/09/05 01:47:30;;;;;;;8.07;4.60;;;19.10;99.90;;;;;;5034741;28;20040;-70
2022/09/05 01:49:56;;;;;;;4.45;4.05;;;19.00;99.90;;;;;;5031900;28;20033;-70
2022/09/05 01:52:39;;;;;;;7.43;5.28;;;19.00;99.90;;;;;;5028782;28;20084;-70
2022/09/05 01:55:08;;;;;;;5.82;5.22;;;19.00;99.90;;;;;;5030409;28;20037;-70
2022/09/05 01:57:57;;;;;;;6.63;5.97;;;19.00;99.90;;;;;;5033590;28;20491;-70
2022/09/05 02:00:29;;;;;;;7.88;6.90;;;18.90;99.90;;;;;;5029115;28;20063;-70
2022/09/05 02:03:03;;;;;;;7.85;6.97;;;18.90;99.90;;;;;;5032943;28;20112;-71
2022/09/05 02:06:06;;;;;;;13.55;7.43;;;18.80;99.90;;;;;;5029322;28;20056;-70
2022/09/05 02:08:50;;;;;;;8.48;5.65;;;18.80;99.90;;;;;;5029627;28;20030;-70
2022/09/05 02:11:15;;;;;;;6.45;4.50;;;18.80;99.90;;;;;;5029212;28;20064;-72
2022/09/05 02:13:55;;;;;;;4.78;4.38;;;18.80;99.90;;;;;;5031323;28;20034;-71
2022/09/05 02:16:27;;;;;;;8.40;5.05;;;18.80;99.90;;;;;;5030676;28;20029;-70
2022/09/05 02:19:08;;;;;;;6.80;5.10;;;18.80;99.90;;;;;;5034288;28;20029;-71
2022/09/05 02:21:39;;;;;;;8.23;5.00;;;18.70;99.90;;;;;;5030496;28;20033;-71
2022/09/05 02:24:17;;;;;;;5.22;4.78;;;18.70;99.90;;;;;;5034828;28;20033;-70
2022/09/05 02:27:09;;;;;;;7.15;5.32;;;18.60;99.90;;;;;;5030966;28;20098;-71
2022/09/05 02:29:44;;;;;;;7.50;6.50;;;18.60;99.90;;;;;;5034878;28;20053;-69
2022/09/05 02:32:35;;;;;;;7.00;6.25;;;18.60;99.90;;;;;;5029356;28;20099;-69
2022/09/05 02:35:09;;;;;;;9.13;7.32;;;18.60;99.90;;;;;;5034156;28;20091;-71
2022/09/05 02:37:46;;;;;;;7.90;5.97;;;18.60;99.90;;;;;;5030180;28;20057;-72
2022/09/05 02:40:40;;;;;;;7.35;6.25;;;18.50;99.90;;;;;;5027810;28;20540;-70
2022/09/05 02:43:24;;;;;;;8.30;6.32;;;18.50;99.90;;;;;;5034463;28;20470;-70
2022/09/05 02:46:08;;;;;;;6.65;6.10;;;18.40;99.90;;;;;;5035078;28;20379;-71
2022/09/05 02:48:33;;;;;;;9.68;6.00;;;18.30;99.90;;;;;;5030128;28;20038;-70
2022/09/05 02:51:20;;;;;;;8.15;6.50;;;18.30;99.90;;;;;;5031228;28;20026;-70
2022/09/05 02:53:53;;;;;;;8.18;7.38;;;18.40;99.90;;;;;;5030067;28;20029;-70
2022/09/05 02:56:53;;;;;;;6.05;5.55;;;18.40;99.90;;;;;;5029570;28;20493;-69
2022/09/05 02:59:43;;;;;;;6.72;6.13;;;18.20;99.90;;;;;;5027556;28;20029;-70
2022/09/05 03:02:30;;;;;;;8.10;6.22;;;18.30;99.90;;;;;;5026923;28;20025;-71
2022/09/05 03:05:17;;;;;;;7.70;5.78;;;18.30;99.90;;;;;;5029961;28;20041;-70
2022/09/05 03:08:21;;;;;;;7.32;6.03;;;18.30;99.90;;;;;;5031221;28;20505;-69
2022/09/05 03:11:05;;;;;;;8.55;6.45;;;18.00;99.90;;;;;;5028219;28;20068;-70
2022/09/05 03:14:08;;;;;;;8.70;7.35;;;18.10;99.90;;;;;;5031107;28;20045;-70
2022/09/05 03:17:03;;;;;;;11.00;7.57;;;18.00;99.90;;;;;;5028968;28;20494;-69
2022/09/05 03:19:46;;;;;;;10.50;7.20;;;18.00;99.90;;;;;;5032891;28;20128;-69
2022/09/05 03:22:14;;;;;;;8.13;6.80;;;18.10;99.90;;;;;;5020924;28;20099;-71
2022/09/05 03:24:46;;;;;;;9.70;6.85;;;18.00;99.90;;;;;;5028392;28;20041;-69
2022/09/05 03:27:43;;;;;;;8.10;7.35;;;18.10;99.90;;;;;;5031839;28;20467;-70
2022/09/05 03:30:14;;;;;;;8.80;7.65;;;18.00;99.90;;;;;;5029617;28;20472;-69
2022/09/05 03:33:13;;;;;;;9.50;8.55;;;18.00;99.90;;;;;;5021364;28;20022;-70
2022/09/05 03:36:12;;;;;;;11.60;8.60;;;18.00;99.90;;;;;;5025388;28;20025;-69
2022/09/05 03:39:05;;;;;;;11.38;8.60;;;18.10;99.90;;;;;;5025341;28;20033;-69
2022/09/05 03:41:31;;;;;;;8.77;7.13;;;18.10;99.90;;;;;;5020894;28;20469;-70
2022/09/05 03:44:15;;;;;;;10.82;9.68;;;18.00;99.90;;;;;;5026852;28;20107;-69
2022/09/05 03:46:49;;;;;;;12.68;10.23;;;17.80;99.90;;;;;;5033661;28;20030;-69
2022/09/05 03:49:49;;;;;;;10.45;9.20;;;17.90;99.90;;;;;;5025521;28;20052;-70
2022/09/05 03:52:31;;;;;;;10.85;8.48;;;17.90;99.90;;;;;;5024075;28;20370;-69
2022/09/05 03:55:25;;;;;;;14.27;11.25;;;17.90;99.90;;;;;;5030261;28;20045;-70
2022/09/05 03:58:11;;;;;;;11.48;8.27;;;17.80;99.90;;;;;;5033442;28;20540;-69
2022/09/05 04:00:40;;;;;;;12.90;9.20;;;17.80;99.90;;;;;;5022274;28;20030;-70
2022/09/05 04:03:14;;;;;;;12.40;8.82;;;17.70;99.90;;;;;;5021180;28;20024;-70
2022/09/05 04:05:53;;;;;;;10.00;8.48;;;17.70;99.90;;;;;;5029640;28;20017;-70
2022/09/05 04:08:45;;;;;;;12.75;8.60;;;17.70;99.90;;;;;;5019915;28;20030;-70
2022/09/05 04:11:18;;;;;;;10.70;8.48;;;17.70;99.90;;;;;;5025948;28;20060;-70
2022/09/05 04:14:06;;;;;;;12.43;8.60;;;17.70;99.90;;;;;;5028341;28;20072;-70
2022/09/05 04:16:45;;;;;;;10.98;8.95;;;17.50;99.90;;;;;;5027935;28;20075;-70
2022/09/05 04:19:20;;;;;;;9.55;8.63;;;17.50;99.90;;;;;;5027908;28;20066;-70
2022/09/05 04:22:12;;;;;;;9.00;8.07;;;17.40;99.90;;;;;;5024953;28;20125;-69
2022/09/05 04:25:05;;;;;;;9.45;7.50;;;17.50;99.90;;;;;;5033832;28;20040;-70
2022/09/05 04:27:37;;;;;;;8.85;7.43;;;17.50;99.90;;;;;;5029422;28;20061;-70
2022/09/05 04:30:24;;;;;;;9.70;7.65;;;17.50;99.90;;;;;;5029017;28;20033;-70
2022/09/05 04:33:20;;;;;;;8.73;7.43;;;17.40;99.90;;;;;;5029942;28;20060;-70
2022/09/05 04:35:58;;;;;;;9.95;8.00;;;17.30;99.90;;;;;;5029444;28;20112;-69
2022/09/05 04:38:39;;;;;;;9.57;8.00;;;17.30;99.90;;;;;;5023344;28;20493;-71
2022/09/05 04:41:05;;;;;;;13.27;9.18;;;17.30;99.90;;;;;;5024910;28;20079;-69
2022/09/05 04:43:52;;;;;;;11.38;7.05;;;17.40;99.90;;;;;;5028757;28;20025;-70
2022/09/05 04:46:50;;;;;;;10.85;8.43;;;17.40;99.90;;;;;;5024951;28;20381;-69
2022/09/05 04:49:24;;;;;;;9.80;8.80;;;17.40;99.90;;;;;;5024466;28;20429;-70
2022/09/05 04:52:11;;;;;;;9.55;7.95;;;17.30;99.90;;;;;;5021108;28;20034;-69
2022/09/05 04:54:56;;;;;;;9.65;7.78;;;17.30;99.90;;;;;;5030491;28;20048;-69
2022/09/05 04:57:45;;;;;;;10.00;8.15;;;17.30;99.90;;;;;;5028173;28;20021;-69
2022/09/05 05:00:25;;;;;;;11.52;8.98;;;17.30;99.90;;;;;;5025865;28;20037;-69
2022/09/05 05:03:03;;;;;;;11.15;8.48;;;17.30;99.90;;;;;;5025069;28;20018;-69
2022/09/05 05:05:53;;;;;;;12.02;8.25;;;17.40;99.90;;;;;;5033309;28;20033;-69
2022/09/05 05:08:34;;;;;;;12.18;7.47;;;17.40;99.90;;;;;;5028403;28;20024;-72
2022/09/05 05:10:59;;;;;;;14.10;8.77;;;17.40;99.90;;;;;;5030068;28;20041;-70
2022/09/05 05:13:31;;;;;;;14.73;8.90;;;17.40;99.90;;;;;;5029349;28;20037;-69
2022/09/05 05:16:03;;;;;;;12.27;8.60;;;17.30;99.90;;;;;;5034438;28;20029;-69
2022/09/05 05:18:50;;;;;;;11.38;9.40;;;17.30;99.90;;;;;;5032311;28;20034;-69
2022/09/05 05:21:21;;;;;;;17.02;9.55;;;17.30;99.90;;;;;;5032500;28;20032;-69
2022/09/05 05:24:09;;;;;;;11.68;8.43;;;17.20;99.90;;;;;;5031591;28;20084;-70
2022/09/05 05:26:43;;;;;;;10.20;8.48;;;17.20;99.90;;;;;;5027517;28;20068;-69
2022/09/05 05:29:38;;;;;;;10.95;8.23;;;17.30;99.90;;;;;;5027984;28;20057;-70
2022/09/05 05:32:04;;;;;;;11.32;9.45;;;17.30;99.90;;;;;;5030320;28;20034;-69
2022/09/05 05:34:43;;;;;;;10.13;8.60;;;17.30;99.90;;;;;;5033794;28;20052;-74
2022/09/05 05:37:15;;;;;;;11.13;8.73;;;17.20;99.90;;;;;;5034848;28;20017;-69
2022/09/05 05:39:47;;;;;;;11.03;7.77;;;17.30;99.90;;;;;;5035494;28;20109;-69
2022/09/05 05:42:18;;;;;;;10.03;8.80;;;17.30;99.90;;;;;;5025728;28;20108;-71
2022/09/05 05:44:50;;;;;;;10.20;8.77;;;17.40;99.90;;;;;;5029442;28;20052;-70
2022/09/05 05:47:22;;;;;;;8.40;7.43;;;17.40;99.90;;;;;;5032466;28;20031;-70
2022/09/05 05:50:06;;;;;;;10.05;7.18;;;17.40;99.90;;;;;;5032540;28;20021;-70
2022/09/05 05:52:53;;;;;;;9.02;7.88;;;17.40;99.90;;;;;;5026289;28;20037;-70
2022/09/05 05:55:27;;;;;;;10.43;7.80;;;17.50;99.90;;;;;;5028691;28;20044;-69
2022/09/05 05:58:08;;;;;;;10.25;7.82;;;17.50;99.90;;;;;;5031460;28;20029;-70
2022/09/05 06:00:55;;;;;;;8.32;7.35;;;17.50;99.90;;;;;;5028143;28;20112;-70
2022/09/05 06:03:34;;;;;;;9.20;7.53;;;17.60;99.90;;;;;;5022621;28;20025;-69
2022/09/05 06:06:32;;;;;;;7.45;6.68;;;17.60;99.90;;;;;;5034617;28;20026;-69
2022/09/05 06:09:16;;;;;;;7.70;6.85;;;17.50;99.90;;;;;;5035290;28;20025;-70
2022/09/05 06:12:02;;;;;;;9.68;7.05;;;17.50;99.90;;;;;;5033677;28;20025;-69
2022/09/05 06:14:47;;;;;;;7.97;6.75;;;17.60;99.90;;;;;;5034725;28;20045;-69
2022/09/05 06:17:31;;;;;;;8.27;6.93;;;17.60;99.90;;;;;;5015516;28;20061;-70
2022/09/05 06:20:15;;;;;;;8.15;6.50;;;17.60;99.90;;;;;;5015195;28;20524;-70
2022/09/05 06:22:56;;;;;;;7.47;6.78;;;17.60;99.90;;;;;;5027112;28;20026;-70
2022/09/05 06:25:46;;;;;;;8.05;6.13;;;17.60;99.90;;;;;;5019994;28;20026;-69
2022/09/05 06:28:24;;;;;;;14.32;6.85;;;17.70;99.90;;;;;;5022254;28;20030;-70
2022/09/05 06:31:23;;;;;;;10.65;6.32;;;17.70;99.90;;;;;;5034488;28;20101;-69
2022/09/05 06:34:01;;;;;;;10.40;7.00;;;17.80;99.90;;;;;;5033298;28;20045;-69
2022/09/05 06:37:14;;;;;;;8.38;6.10;;;17.80;99.90;;;;;;5033513;28;20045;-69
2022/09/05 06:39:51;;;;;;;7.57;5.80;;;17.90;99.90;;;;;;5038126;28;20139;-69
2022/09/05 06:42:29;;;;;;;8.40;5.47;;;17.90;99.90;;;;;;5033760;28;20525;-68
2022/09/05 06:45:33;;;;;;;8.07;5.30;;;18.00;99.90;;;;;;5033041;28;20025;-69
2022/09/05 06:48:08;;;;;;;7.60;4.70;;;17.90;99.90;;;;;;5031123;28;20017;-69
2022/09/05 06:51:15;;;;;;;7.75;6.00;;;18.00;99.90;;;;;;5033906;28;20374;-68
2022/09/05 06:53:58;;;;;;;6.40;5.13;;;18.00;99.90;;;;;;5029686;28;20029;-70
2022/09/05 06:56:30;;;;;;;7.40;6.15;;;18.00;99.90;;;;;;5029514;28;20386;-69
2022/09/05 06:59:28;;;;;;;7.30;5.97;;;18.10;99.90;;;;;;5033289;28;20060;-69
2022/09/05 07:02:07;;;;;;;6.00;5.50;;;18.20;99.90;;;;;;5027989;28;20473;-71
2022/09/05 07:04:39;;;;;;;8.23;5.68;;;18.20;99.90;;;;;;5031083;28;20020;-70
2022/09/05 07:07:31;;;;;;;14.02;5.63;;;18.30;99.90;;;;;;5032723;28;20025;-69
2022/09/05 07:10:28;;;;;;;6.68;4.68;;;18.30;99.90;;;;;;5032944;28;20033;-69
2022/09/05 07:13:02;;;;;;;8.98;6.10;;;18.40;99.90;;;;;;5027182;28;20445;-69
2022/09/05 07:15:55;;;;;;;9.18;6.05;;;18.50;99.90;;;;;;5033174;28;20065;-69
2022/09/05 07:18:44;;;;;;;9.32;5.82;;;18.60;99.90;;;;;;5031669;28;20408;-69
2022/09/05 07:21:21;;;;;;;6.00;4.07;;;18.70;99.90;;;;;;5031615;28;20124;-69
2022/09/05 07:24:05;;;;;;;12.27;5.55;;;18.90;99.90;;;;;;5031111;28;20026;-69
2022/09/05 07:26:34;;;;;;;10.82;5.40;;;19.00;99.90;;;;;;5030831;28;20109;-69
2022/09/05 07:29:04;;;;;;;9.38;5.82;;;19.10;99.90;;;;;;5033699;28;20029;-69
2022/09/05 07:31:34;;;;;;;9.15;5.40;;;19.20;99.90;;;;;;5031827;28;20432;-70
2022/09/05 07:34:18;;;;;;;13.40;6.10;;;19.30;99.90;;;;;;5031691;28;20087;-70
2022/09/05 07:36:52;;;;;;;13.57;5.32;;;19.50;99.90;;;;;;5030748;28;20108;-70
2022/09/05 07:39:23;;;;;;;7.90;4.72;;;19.60;99.90;;;;;;5032251;28;20025;-69
2022/09/05 07:41:53;;;;;;;8.50;4.35;;;19.70;99.90;;;;;;5031715;28;20045;-72
2022/09/05 07:44:30;;;;;;;8.00;3.97;;;19.70;99.90;;;;;;5031985;28;20021;-70
2022/09/05 07:47:07;;;;;;;13.88;4.95;;;19.80;99.90;;;;;;5031270;28;20417;-69
2022/09/05 07:49:36;;;;;;;9.45;3.80;;;19.90;99.90;;;;;;5032618;28;20091;-69
2022/09/05 07:52:28;;;;;;;9.75;4.03;;;20.00;99.90;;;;;;5032315;28;20052;-70
2022/09/05 07:54:57;;;;;;;9.83;5.33;;;20.00;99.90;;;;;;5030385;28;20440;-70
2022/09/05 07:57:31;;;;;;;5.53;3.92;;;20.10;99.90;;;;;;5032949;28;20026;-70
2022/09/05 08:00:20;;;;;;;8.05;4.57;;;20.20;99.90;;;;;;5032449;28;20101;-72
2022/09/05 08:02:46;;;;;;;31.25;6.75;;;20.40;99.90;;;;;;5033090;28;20055;-71
2022/09/05 08:05:15;;;;;;;9.95;5.20;;;20.60;99.90;;;;;;5033003;28;20025;-71
2022/09/05 08:07:45;;;;;;;8.90;5.03;;;20.70;99.90;;;;;;5031512;28;20049;-71
2022/09/05 08:10:16;;;;;;;6.63;4.07;;;20.90;99.90;;;;;;5030785;28;20032;-71
2022/09/05 08:12:49;;;;;;;10.68;5.35;;;21.10;99.90;;;;;;5031748;28;20378;-70
2022/09/05 08:15:21;;;;;;;;;;;21.20;99.90;;;;;;5032940;28;20069;-70
2022/09/05 08:18:10;;;;;;;7.70;4.65;;;21.30;99.90;;;;;;5032820;28;20399;-70
2022/09/05 08:20:38;;;;;;;10.45;4.20;;;21.50;99.90;;;;;;5031036;28;20029;-70
2022/09/05 08:23:32;;;;;;;7.40;5.05;;;21.70;99.90;;;;;;5031300;28;20039;-70
2022/09/05 08:26:07;;;;;;;18.85;4.82;;;21.80;99.90;;;;;;5032282;28;20029;-71
2022/09/05 08:29:05;;;;;;;11.93;4.30;;;22.00;99.90;;;;;;5028283;28;20053;-70
2022/09/05 08:31:36;;;;;;;10.80;4.68;;;22.10;99.90;;;;;;5026578;28;20158;-70
2022/09/05 08:34:08;;;;;;;8.48;4.70;;;22.30;99.90;;;;;;5031110;28;20140;-70
2022/09/05 08:36:49;;;;;;;9.27;3.92;;;22.50;99.90;;;;;;4999372;28;20418;-70
2022/09/05 08:39:25;;;;;;;8.38;4.95;;;22.50;99.90;;;;;;5030824;28;20466;-71
2022/09/05 08:42:27;;;;;;;5.43;3.58;;;22.70;99.90;;;;;;5048016;28;20075;-70
2022/09/05 08:45:11;;;;;;;4.07;3.60;;;22.60;99.90;;;;;;5019812;28;20048;-71
2022/09/05 08:48:30;;;;;;;8.40;4.68;;;22.60;99.90;;;;;;5044494;28;20029;-72
2022/09/05 08:51:17;;;;;;;10.57;4.88;;;22.80;99.90;;;;;;5035439;28;20017;-70
2022/09/05 08:53:49;;;;;;;6.13;3.95;;;22.90;99.90;;;;;;5041306;28;20045;-69
2022/09/05 08:56:21;;;;;;;5.70;3.35;;;23.20;99.90;;;;;;5026410;28;20064;-70
2022/09/05 08:58:59;;;;;;;;;;;23.40;99.90;;;;;;5036692;28;20036;-71
2022/09/05 09:01:32;;;;;;;6.15;3.20;;;23.60;99.90;;;;;;5034424;28;20404;-71
2022/09/05 09:04:15;;;;;;;8.95;2.95;;;23.70;99.90;;;;;;5035560;28;20030;-71
2022/09/05 09:06:59;;;;;;;4.75;2.95;;;23.80;99.90;;;;;;5033949;28;20087;-72
2022/09/05 09:09:46;;;;;;;8.10;3.17;;;23.90;99.90;;;;;;5033647;28;20021;-70
2022/09/05 09:12:43;;;;;;;5.70;2.67;;;23.90;99.90;;;;;;5037313;28;20041;-71
2022/09/05 09:15:30;;;;;;;7.03;2.88;;;24.00;99.90;;;;;;5035774;28;20037;-71
2022/09/05 09:17:57;;;;;;;6.05;3.08;;;24.20;99.90;;;;;;5035429;28;20028;-71
2022/09/05 09:20:41;;;;;;;3.00;2.50;;;24.50;99.90;;;;;;5037676;28;20029;-74
2022/09/05 09:23:48;;;;;;;9.23;2.60;;;24.80;99.90;;;;;;5033228;28;20099;-71
2022/09/05 09:26:15;;;;;;;8.68;2.53;;;24.80;99.90;;;;;;5026279;28;20748;-71
2022/09/05 09:29:11;;;;;;;8.93;2.53;;;24.90;99.90;;;;;;5049589;28;20033;-72
2022/09/05 09:31:57;;;;;;;7.57;2.10;;;25.00;99.90;;;;;;5040115;28;20032;-71
2022/09/05 09:34:27;;;;;;;4.38;2.30;;;25.10;99.90;;;;;;5024226;28;20037;-71
2022/09/05 09:37:26;;;;;;;8.23;2.25;;;25.30;99.90;;;;;;5031230;28;20037;-71
2022/09/05 09:40:29;;;;;;;6.45;2.35;;;25.50;99.90;;;;;;5037939;28;20374;-71
2022/09/05 09:43:13;;;;;;;;;;;25.50;99.90;;;;;;5045887;28;20026;-72
2022/09/05 09:46:02;;;;;;;4.32;2.63;;;25.50;99.90;;;;;;5037791;28;19916;-71
2022/09/05 09:49:06;;;;;;;7.18;2.22;;;25.50;99.90;;;;;;5020044;28;20036;-72
2022/09/05 09:51:56;;;;;;;5.45;2.35;;;25.40;99.90;;;;;;5020714;28;20068;-71
2022/09/05 09:55:00;;;;;;;3.97;1.90;;;25.50;99.90;;;;;;5020325;28;20078;-71
2022/09/05 09:57:56;;;;;;;8.80;2.20;;;25.80;99.90;;;;;;5046197;28;20017;-71
2022/09/05 10:00:23;;;;;;;10.57;2.40;;;26.10;99.90;;;;;;5023210;28;20024;-71
2022/09/05 10:02:58;;;;;;;5.88;1.85;;;26.40;99.90;;;;;;5047661;28;20048;-71
2022/09/05 10:05:54;;;;;;;4.60;2.47;;;26.70;98.10;;;;;;5038049;28;20018;-71
2022/09/05 10:08:51;;;;;;;4.10;1.90;;;26.80;99.60;;;;;;5037234;28;20099;-71
2022/09/05 10:11:37;;;;;;;5.45;1.70;;;27.10;97.10;;;;;;5040315;28;20033;-72
2022/09/05 10:14:23;;;;;;;5.78;1.50;;;27.30;96.10;;;;;;5049472;28;20485;-72
2022/09/05 10:17:07;;;;;;;7.50;1.80;;;27.60;95.80;;;;;;5040353;28;20036;-72
2022/09/05 10:19:58;;;;;;;3.10;1.80;;;27.70;95.70;;;;;;5038300;28;20036;-71
2022/09/05 10:22:23;;;;;;;2.08;1.60;;;27.90;95.60;;;;;;5023095;28;20029;-71
2022/09/05 10:25:08;;;;;;;3.67;1.55;;;28.00;95.40;;;;;;5046418;28;20212;-70
2022/09/05 10:27:42;;;;;;;4.15;1.50;;;28.10;93.00;;;;;;5047894;28;20454;-71
2022/09/05 10:30:14;;;;;;;2.53;1.50;;;28.40;92.40;;;;;;5037086;28;20470;-71
2022/09/05 10:33:18;;;;;;;6.47;1.63;;;28.50;91.00;;;;;;5047526;28;20061;-71
2022/09/05 10:35:49;;;;;;;1.83;1.30;;;28.60;91.40;;;;;;5036666;28;20333;-71
2022/09/05 10:38:42;;;;;;;2.07;1.33;;;28.80;92.00;;;;;;5029129;28;20020;-71
2022/09/05 10:41:12;;;;;;;3.30;1.33;;;28.70;90.80;;;;;;5044387;28;20033;-71
2022/09/05 10:44:01;;;;;;;1.52;1.20;;;29.00;90.70;;;;;;5039293;28;20036;-77
2022/09/05 10:46:48;;;;;;;1.65;1.20;;;29.00;92.20;;;;;;5028564;28;20091;-71
2022/09/05 10:49:15;;;;;;;1.88;1.10;;;29.20;90.20;;;;;;5028049;28;20024;-71
2022/09/05 10:51:51;;;;;;;2.97;1.40;;;29.20;89.90;;;;;;5047650;28;20033;-71
2022/09/05 10:54:55;;;;;;;3.78;1.50;;;29.30;91.50;;;;;;5031065;28;20485;-71
2022/09/05 10:57:26;;;;;;;3.83;1.70;;;29.50;90.90;;;;;;5039853;28;20041;-71
2022/09/05 11:00:42;;;;;;;3.28;1.85;;;29.50;87.70;;;;;;5049565;28;20029;-71
2022/09/05 11:03:17;;;;;;;3.00;1.60;;;29.50;85.20;;;;;;5051608;28;20028;-72
2022/09/05 11:05:58;;;;;;;3.40;1.33;;;29.80;86.20;;;;;;5039690;28;20034;-71
2022/09/05 11:08:48;;;;;;;5.18;1.70;;;30.00;87.30;;;;;;5034466;28;20033;-71
2022/09/05 11:11:17;;;;;;;3.85;1.60;;;30.00;85.70;;;;;;5044381;28;20041;-71
2022/09/05 11:13:44;;;;;;;4.63;1.33;;;30.10;90.70;;;;;;5035568;28;20033;-69
2022/09/05 11:16:13;;;;;;;4.47;1.65;;;30.20;88.30;;;;;;5034548;28;20034;-70
2022/09/05 11:18:51;;;;;;;4.15;1.73;;;30.10;85.20;;;;;;5032827;28;20025;-68
2022/09/05 11:21:24;;;;;;;4.38;1.50;;;30.00;82.70;;;;;;5039816;28;20537;-72
2022/09/05 11:24:05;;;;;;;3.42;1.40;;;30.10;89.20;;;;;;5048019;28;20541;-72
2022/09/05 11:26:43;;;;;;;2.85;1.40;;;30.30;83.90;;;;;;5022461;28;20108;-68
2022/09/05 11:29:16;;;;;;;4.03;1.50;;;30.10;84.80;;;;;;5041458;28;20057;-70
2022/09/05 11:32:01;;;;;;;1.23;1.08;;;30.40;85.10;;;;;;5045801;28;20347;-71
2022/09/05 11:34:37;;;;;;;3.85;1.63;;;30.50;86.70;;;;;;5020273;28;20064;-69
2022/09/05 11:37:12;;;;;;;2.92;1.52;;;30.70;83.70;;;;;;5023907;28;20096;-70
2022/09/05 11:40:09;;;;;;;2.00;1.27;;;30.60;86.10;;;;;;5031584;28;20033;-70
2022/09/05 11:42:53;;;;;;;2.10;1.33;;;30.60;85.20;;;;;;5023987;28;20029;-69
2022/09/05 11:46:00;;;;;;;1.55;1.15;;;30.80;84.90;;;;;;5039622;28;20025;-69
2022/09/05 11:48:54;;;;;;;1.98;1.20;;;30.90;88.30;;;;;;5022835;28;20108;-69
2022/09/05 11:51:53;;;;;;;4.90;1.50;;;30.80;85.40;;;;;;5038204;28;20112;-70
2022/09/05 11:54:57;;;;;;;1.50;1.40;;;30.90;82.70;;;;;;5025840;28;20037;-72
2022/09/05 11:57:30;;;;;;;2.20;1.45;;;30.80;82.80;;;;;;5038773;28;20072;-71
2022/09/05 12:00:11;;;;;;;3.30;1.58;;;30.80;79.90;;;;;;5031850;28;20460;-70
2022/09/05 12:02:56;;;;;;;1.77;1.63;;;31.00;84.80;;;;;;5033744;28;20033;-70
2022/09/05 12:05:36;;;;;;;3.42;1.40;;;31.20;85.20;;;;;;5034717;28;20021;-69
2022/09/05 12:08:22;;;;;;;2.15;1.50;;;31.20;82.60;;;;;;5030032;28;20370;-69
2022/09/05 12:11:06;;;;;;;2.80;1.60;;;30.90;80.40;;;;;;5029631;28;20033;-72
2022/09/05 12:13:53;;;;;;;1.45;1.35;;;31.00;80.60;;;;;;5030163;28;20061;-72
2022/09/05 12:16:22;;;;;;;2.42;1.40;;;31.30;81.90;;;;;;5029191;28;20113;-72
2022/09/05 12:19:18;;;;;;;2.97;1.90;;;31.30;81.30;;;;;;5031795;28;20033;-72
2022/09/05 12:22:21;;;;;;;3.22;1.90;;;31.30;79.20;;;;;;5029066;28;20025;-72
2022/09/05 12:24:58;;;;;;;6.63;1.42;;;31.30;84.50;;;;;;5028502;28;20022;-71
2022/09/05 12:27:29;;;;;;;3.22;1.60;;;31.40;79.60;;;;;;5027838;28;20025;-72
2022/09/05 12:30:02;;;;;;;3.50;1.60;;;31.60;84.20;;;;;;5030661;28;20460;-69
2022/09/05 12:32:30;;;;;;;2.22;1.50;;;31.40;81.90;;;;;;5027794;28;20397;-70
2022/09/05 12:35:01;;;;;;;2.05;1.60;;;31.40;79.80;;;;;;5030284;28;20393;-70
2022/09/05 12:38:01;;;;;;;4.32;1.40;;;31.50;79.00;;;;;;5029256;28;20451;-70
2022/09/05 12:40:32;;;;;;;3.58;1.63;;;31.60;80.00;;;;;;5021852;28;20057;-69
2022/09/05 12:43:05;;;;;;;3.67;1.42;;;31.60;81.90;;;;;;5039993;28;20055;-70
2022/09/05 12:45:48;;;;;;;2.60;1.90;;;31.70;78.20;;;;;;5036827;28;20037;-69
2022/09/05 12:48:22;;;;;;;3.03;1.30;;;31.80;79.10;;;;;;5048130;28;20516;-71
2022/09/05 12:51:14;;;;;;;1.48;1.35;;;31.80;77.50;;;;;;5038243;28;20065;-70
2022/09/05 12:54:01;;;;;;;5.40;1.55;;;31.80;75.60;;;;;;5045692;28;20815;-69
2022/09/05 12:56:32;;;;;;;2.22;1.05;;;31.90;78.50;;;;;;5020190;28;20040;-69
2022/09/05 12:58:59;;;;;;;2.08;1.20;;;31.90;72.90;;;;;;5040354;28;20028;-70
2022/09/05 13:01:37;;;;;;;1.45;1.35;;;31.90;78.00;;;;;;5043424;28;20462;-70
2022/09/05 13:04:20;;;;;;;3.85;1.55;;;31.60;73.70;;;;;;5032403;28;20017;-70
2022/09/05 13:06:55;;;;;;;4.10;1.52;;;31.40;77.70;;;;;;5036846;28;20059;-69
2022/09/05 13:09:25;;;;;;;3.33;1.42;;;31.20;73.70;;;;;;5023303;28;20449;-70
2022/09/05 13:12:02;;;;;;;2.28;1.33;;;31.00;80.50;;;;;;5025293;28;20120;-70
2022/09/05 13:14:54;;;;;;;4.72;1.50;;;30.70;81.00;;;;;;5032283;28;20033;-70
2022/09/05 13:17:37;;;;;;;3.80;1.70;;;30.40;84.50;;;;;;5014968;28;20060;-69
2022/09/05 13:20:08;;;;;;;1.38;1.05;;;30.40;87.60;;;;;;5018962;28;20022;-69
2022/09/05 13:22:37;;;;;;;4.38;1.45;;;30.30;87.60;;;;;;5024017;28;20476;-70
2022/09/05 13:25:08;;;;;;;4.10;2.15;;;30.40;85.70;;;;;;5026663;28;20116;-70
2022/09/05 13:27:45;;;;;;;3.08;1.13;;;30.50;85.40;;;;;;5030814;28;20017;-70
2022/09/05 13:30:12;;;;;;;3.03;1.50;;;30.60;86.20;;;;;;5028180;28;20022;-70
2022/09/05 13:32:48;;;;;;;1.42;1.30;;;30.60;87.00;;;;;;5017635;28;20053;-70
2022/09/05 13:35:26;;;;;;;3.78;1.50;;;30.60;85.90;;;;;;5031460;28;20040;-70
2022/09/05 13:38:14;;;;;;;3.22;1.67;;;30.70;84.40;;;;;;5027413;28;20037;-69
2022/09/05 13:40:47;;;;;;;2.17;1.60;;;30.60;87.30;;;;;;5029086;28;20034;-69
2022/09/05 13:43:25;;;;;;;1.52;1.30;;;30.50;85.10;;;;;;5032616;28;20533;-70
2022/09/05 13:46:15;;;;;;;2.13;1.70;;;30.40;87.20;;;;;;5026510;28;20477;-71
2022/09/05 13:48:50;;;;;;;1.88;1.23;;;30.40;83.00;;;;;;5027960;28;20124;-70
2022/09/05 13:51:37;;;;;;;1.80;1.30;;;30.30;89.00;;;;;;5025437;28;20036;-69
2022/09/05 13:54:05;;;;;;;2.15;1.55;;;30.20;88.80;;;;;;5031563;28;20116;-71
2022/09/05 13:56:38;;;;;;;2.55;1.63;;;30.00;89.60;;;;;;5031414;28;20037;-69
2022/09/05 13:59:13;;;;;;;3.70;2.13;;;30.00;86.20;;;;;;5028215;28;20026;-70
2022/09/05 14:01:45;;;;;;;2.40;1.63;;;29.90;87.90;;;;;;5031511;28;20033;-69
2022/09/05 14:04:37;;;;;;;6.18;1.85;;;29.90;87.70;;;;;;5032787;28;20029;-70